sensor_id;sensor_type;location;lat;lon;timestamp;pressure;altitude;pressure_sealevel;temperature;humidity
77893;BME280;67087;50.094;14.338;2023-07-13T00:01:01;97665.87;;;30.01;33.22
77893;BME280;67087;50.094;14.338;2023-07-13T00:03:26;97668.45;;;29.82;33.49
77893;BME280;67087;50.094;14.338;2023-07-13T00:05:57;97667.59;;;30.03;33.25
77893;BME280;67087;50.094;14.338;2023-07-13T00:08:18;97669.21;;;29.57;33.28
77893;BME280;67087;50.094;14.338;2023-07-13T00:10:44;97670.13;;;30.04;33.34
77893;BME280;67087;50.094;14.338;2023-07-13T00:13:10;97676.14;;;29.60;33.24
77893;BME280;67087;50.094;14.338;2023-07-13T00:15:36;97673.06;;;30.44;33.01
77893;BME280;67087;50.094;14.338;2023-07-13T00:18:01;97669.59;;;30.10;33.42
77893;BME280;67087;50.094;14.338;2023-07-13T00:20:27;97669.63;;;30.05;33.42
77893;BME280;67087;50.094;14.338;2023-07-13T00:22:53;97677.52;;;30.06;33.60
77893;BME280;67087;50.094;14.338;2023-07-13T00:25:19;97676.74;;;30.03;33.53
77893;BME280;67087;50.094;14.338;2023-07-13T00:27:46;97673.65;;;30.01;33.60
77893;BME280;67087;50.094;14.338;2023-07-13T00:30:12;97664.37;;;29.83;33.43
77893;BME280;67087;50.094;14.338;2023-07-13T00:32:38;97654.33;;;30.07;33.35
77893;BME280;67087;50.094;14.338;2023-07-13T00:35:03;97647.14;;;30.57;33.24
77893;BME280;67087;50.094;14.338;2023-07-13T00:37:28;97642.63;;;30.35;33.06
77893;BME280;67087;50.094;14.338;2023-07-13T00:39:54;97636.35;;;30.49;33.42
77893;BME280;67087;50.094;14.338;2023-07-13T00:42:19;97634.30;;;30.50;32.89
77893;BME280;67087;50.094;14.338;2023-07-13T00:47:11;97628.94;;;30.14;33.07
77893;BME280;67087;50.094;14.338;2023-07-13T00:49:36;97624.63;;;30.01;33.87
77893;BME280;67087;50.094;14.338;2023-07-13T00:52:05;97621.29;;;30.48;33.35
77893;BME280;67087;50.094;14.338;2023-07-13T00:54:30;97619.12;;;30.21;33.74
77893;BME280;67087;50.094;14.338;2023-07-13T00:56:57;97616.98;;;30.16;33.68
77893;BME280;67087;50.094;14.338;2023-07-13T00:59:21;97619.98;;;30.15;33.31
77893;BME280;67087;50.094;14.338;2023-07-13T01:01:46;97622.20;;;30.50;33.06
77893;BME280;67087;50.094;14.338;2023-07-13T01:04:12;97624.55;;;30.17;33.24
77893;BME280;67087;50.094;14.338;2023-07-13T01:06:38;97625.37;;;30.79;33.04
77893;BME280;67087;50.094;14.338;2023-07-13T01:09:04;97620.85;;;30.52;33.28
77893;BME280;67087;50.094;14.338;2023-07-13T01:11:29;97619.33;;;30.32;33.46
77893;BME280;67087;50.094;14.338;2023-07-13T01:13:54;97622.13;;;30.60;33.41
77893;BME280;67087;50.094;14.338;2023-07-13T01:16:25;97616.60;;;30.47;32.98
77893;BME280;67087;50.094;14.338;2023-07-13T01:18:46;97610.63;;;30.70;32.98
77893;BME280;67087;50.094;14.338;2023-07-13T01:21:12;97610.16;;;30.04;33.20
77893;BME280;67087;50.094;14.338;2023-07-13T01:23:38;97611.98;;;30.44;33.18
77893;BME280;67087;50.094;14.338;2023-07-13T01:26:03;97609.98;;;30.62;32.90
77893;BME280;67087;50.094;14.338;2023-07-13T01:28:29;97607.81;;;30.77;32.80
77893;BME280;67087;50.094;14.338;2023-07-13T01:30:57;97610.85;;;30.45;33.23
77893;BME280;67087;50.094;14.338;2023-07-13T01:33:21;97605.90;;;30.69;32.77
77893;BME280;67087;50.094;14.338;2023-07-13T01:35:47;97605.50;;;31.04;32.25
77893;BME280;67087;50.094;14.338;2023-07-13T01:38:14;97601.76;;;29.93;33.17
77893;BME280;67087;50.094;14.338;2023-07-13T01:40:38;97600.40;;;30.55;33.24
77893;BME280;67087;50.094;14.338;2023-07-13T01:43:04;97609.10;;;30.38;33.33
77893;BME280;67087;50.094;14.338;2023-07-13T01:45:30;97605.91;;;30.68;32.96
77893;BME280;67087;50.094;14.338;2023-07-13T01:47:56;97606.22;;;30.45;33.20
77893;BME280;67087;50.094;14.338;2023-07-13T01:50:22;97607.28;;;30.31;32.99
77893;BME280;67087;50.094;14.338;2023-07-13T01:52:48;97608.22;;;30.51;33.07
77893;BME280;67087;50.094;14.338;2023-07-13T01:55:14;97609.65;;;29.91;33.01
77893;BME280;67087;50.094;14.338;2023-07-13T01:57:39;97610.82;;;30.29;33.45
77893;BME280;67087;50.094;14.338;2023-07-13T02:00:09;97614.62;;;30.20;33.58
77893;BME280;67087;50.094;14.338;2023-07-13T02:02:31;97615.07;;;30.08;33.74
77893;BME280;67087;50.094;14.338;2023-07-13T02:04:57;97612.46;;;30.14;33.63
77893;BME280;67087;50.094;14.338;2023-07-13T02:07:23;97612.24;;;29.98;33.56
77893;BME280;67087;50.094;14.338;2023-07-13T02:09:48;97613.34;;;30.53;33.60
77893;BME280;67087;50.094;14.338;2023-07-13T02:12:14;97611.18;;;29.90;33.41
77893;BME280;67087;50.094;14.338;2023-07-13T02:14:40;97608.31;;;30.20;33.64
77893;BME280;67087;50.094;14.338;2023-07-13T02:17:06;97610.92;;;30.69;33.28
77893;BME280;67087;50.094;14.338;2023-07-13T02:19:32;97610.01;;;30.13;33.83
77893;BME280;67087;50.094;14.338;2023-07-13T02:21:58;97616.34;;;30.67;33.11
77893;BME280;67087;50.094;14.338;2023-07-13T02:24:23;97623.43;;;29.84;33.51
77893;BME280;67087;50.094;14.338;2023-07-13T02:26:49;97624.96;;;30.14;33.78
77893;BME280;67087;50.094;14.338;2023-07-13T02:29:15;97630.70;;;29.63;33.74
77893;BME280;67087;50.094;14.338;2023-07-13T02:31:41;97635.35;;;30.23;33.18
77893;BME280;67087;50.094;14.338;2023-07-13T02:34:07;97629.45;;;30.28;33.64
77893;BME280;67087;50.094;14.338;2023-07-13T02:36:33;97631.40;;;30.53;33.43
77893;BME280;67087;50.094;14.338;2023-07-13T02:39:01;97636.07;;;30.29;33.73
77893;BME280;67087;50.094;14.338;2023-07-13T02:41:24;97644.12;;;30.34;33.62
77893;BME280;67087;50.094;14.338;2023-07-13T02:43:50;97643.13;;;30.29;33.73
77893;BME280;67087;50.094;14.338;2023-07-13T02:46:16;97649.14;;;29.85;33.52
77893;BME280;67087;50.094;14.338;2023-07-13T02:48:42;97649.58;;;30.32;33.63
77893;BME280;67087;50.094;14.338;2023-07-13T02:51:08;97657.09;;;30.37;33.42
77893;BME280;67087;50.094;14.338;2023-07-13T02:53:33;97659.83;;;30.54;33.18
77893;BME280;67087;50.094;14.338;2023-07-13T02:55:59;97660.38;;;30.23;33.78
77893;BME280;67087;50.094;14.338;2023-07-13T02:58:25;97662.49;;;30.14;33.92
77893;BME280;67087;50.094;14.338;2023-07-13T03:00:51;97660.83;;;30.17;34.31
77893;BME280;67087;50.094;14.338;2023-07-13T03:03:17;97659.28;;;29.66;33.85
77893;BME280;67087;50.094;14.338;2023-07-13T03:05:44;97661.22;;;30.21;33.86
77893;BME280;67087;50.094;14.338;2023-07-13T03:08:09;97662.83;;;30.36;33.57
77893;BME280;67087;50.094;14.338;2023-07-13T03:10:34;97665.50;;;30.17;34.33
77893;BME280;67087;50.094;14.338;2023-07-13T03:13:00;97665.14;;;30.19;34.40
77893;BME280;67087;50.094;14.338;2023-07-13T03:15:27;97670.07;;;30.53;33.64
77893;BME280;67087;50.094;14.338;2023-07-13T03:17:52;97675.17;;;30.34;34.55
77893;BME280;67087;50.094;14.338;2023-07-13T03:20:17;97674.38;;;29.90;34.58
77893;BME280;67087;50.094;14.338;2023-07-13T03:22:45;97679.55;;;29.93;34.34
77893;BME280;67087;50.094;14.338;2023-07-13T03:25:10;97679.91;;;30.11;34.50
77893;BME280;67087;50.094;14.338;2023-07-13T03:27:35;97684.47;;;30.36;34.36
77893;BME280;67087;50.094;14.338;2023-07-13T03:30:01;97693.49;;;30.17;34.58
77893;BME280;67087;50.094;14.338;2023-07-13T03:32:26;97700.86;;;30.20;34.36
77893;BME280;67087;50.094;14.338;2023-07-13T03:34:52;97697.49;;;30.40;34.09
77893;BME280;67087;50.094;14.338;2023-07-13T03:37:18;97712.50;;;30.04;34.11
77893;BME280;67087;50.094;14.338;2023-07-13T03:39:44;97716.20;;;30.16;34.58
77893;BME280;67087;50.094;14.338;2023-07-13T03:42:10;97721.10;;;30.17;34.00
77893;BME280;67087;50.094;14.338;2023-07-13T03:44:36;97715.72;;;30.27;34.15
77893;BME280;67087;50.094;14.338;2023-07-13T03:47:02;97714.76;;;30.06;34.49
77893;BME280;67087;50.094;14.338;2023-07-13T03:49:27;97710.01;;;30.10;34.17
77893;BME280;67087;50.094;14.338;2023-07-13T03:51:53;97712.59;;;30.38;34.34
77893;BME280;67087;50.094;14.338;2023-07-13T03:54:19;97712.25;;;29.58;34.49
77893;BME280;67087;50.094;14.338;2023-07-13T03:56:45;97715.60;;;30.06;34.45
77893;BME280;67087;50.094;14.338;2023-07-13T03:59:11;97725.66;;;29.79;34.55
77893;BME280;67087;50.094;14.338;2023-07-13T04:01:37;97730.24;;;30.22;34.09
77893;BME280;67087;50.094;14.338;2023-07-13T04:04:03;97738.91;;;30.23;34.49
77893;BME280;67087;50.094;14.338;2023-07-13T04:06:29;97742.24;;;30.33;34.11
77893;BME280;67087;50.094;14.338;2023-07-13T04:08:55;97745.56;;;30.20;34.17
77893;BME280;67087;50.094;14.338;2023-07-13T04:11:21;97747.35;;;30.24;34.25
77893;BME280;67087;50.094;14.338;2023-07-13T04:13:46;97750.25;;;30.22;34.20
77893;BME280;67087;50.094;14.338;2023-07-13T04:16:12;97752.19;;;29.95;34.22
77893;BME280;67087;50.094;14.338;2023-07-13T04:18:37;97756.56;;;30.32;34.18
77893;BME280;67087;50.094;14.338;2023-07-13T04:21:03;97754.45;;;30.10;34.35
77893;BME280;67087;50.094;14.338;2023-07-13T04:23:29;97754.62;;;30.63;33.57
77893;BME280;67087;50.094;14.338;2023-07-13T04:25:55;97758.90;;;30.73;25.89
77893;BME280;67087;50.094;14.338;2023-07-13T04:28:22;97759.18;;;30.23;25.10
77893;BME280;67087;50.094;14.338;2023-07-13T04:30:46;97762.39;;;29.42;25.99
77893;BME280;67087;50.094;14.338;2023-07-13T04:33:13;97763.43;;;29.21;25.22
77893;BME280;67087;50.094;14.338;2023-07-13T04:35:38;97762.23;;;29.77;25.28
77893;BME280;67087;50.094;14.338;2023-07-13T04:38:04;97758.99;;;29.76;24.93
77893;BME280;67087;50.094;14.338;2023-07-13T04:40:30;97762.04;;;29.36;25.33
77893;BME280;67087;50.094;14.338;2023-07-13T04:42:56;97760.65;;;29.61;25.28
77893;BME280;67087;50.094;14.338;2023-07-13T04:45:22;97769.01;;;29.26;25.38
77893;BME280;67087;50.094;14.338;2023-07-13T04:47:48;97775.05;;;28.94;25.84
77893;BME280;67087;50.094;14.338;2023-07-13T04:50:13;97779.61;;;28.91;25.81
77893;BME280;67087;50.094;14.338;2023-07-13T04:52:38;97780.38;;;29.17;25.65
77893;BME280;67087;50.094;14.338;2023-07-13T04:55:03;97785.99;;;29.16;25.64
77893;BME280;67087;50.094;14.338;2023-07-13T04:57:28;97783.84;;;28.14;26.64
77893;BME280;67087;50.094;14.338;2023-07-13T04:59:53;97786.83;;;28.89;25.97
77893;BME280;67087;50.094;14.338;2023-07-13T05:02:18;97779.56;;;28.39;26.22
77893;BME280;67087;50.094;14.338;2023-07-13T05:04:43;97787.18;;;28.46;26.76
77893;BME280;67087;50.094;14.338;2023-07-13T05:07:08;97781.76;;;29.20;26.02
77893;BME280;67087;50.094;14.338;2023-07-13T05:09:33;97792.65;;;28.24;26.87
77893;BME280;67087;50.094;14.338;2023-07-13T05:11:58;97794.96;;;28.11;26.69
77893;BME280;67087;50.094;14.338;2023-07-13T05:14:23;97790.60;;;28.27;26.24
77893;BME280;67087;50.094;14.338;2023-07-13T05:16:48;97789.28;;;28.49;26.73
77893;BME280;67087;50.094;14.338;2023-07-13T05:19:13;97796.23;;;27.52;27.13
77893;BME280;67087;50.094;14.338;2023-07-13T05:21:38;97796.73;;;28.07;27.06
77893;BME280;67087;50.094;14.338;2023-07-13T05:24:03;97801.79;;;28.09;26.76
77893;BME280;67087;50.094;14.338;2023-07-13T05:26:28;97807.05;;;28.01;27.18
77893;BME280;67087;50.094;14.338;2023-07-13T05:28:53;97811.56;;;28.00;27.14
77893;BME280;67087;50.094;14.338;2023-07-13T05:31:18;97811.61;;;27.52;27.42
77893;BME280;67087;50.094;14.338;2023-07-13T05:33:43;97812.45;;;28.31;27.22
77893;BME280;67087;50.094;14.338;2023-07-13T05:36:08;97808.67;;;28.11;27.95
77893;BME280;67087;50.094;14.338;2023-07-13T05:38:33;97802.22;;;28.88;26.96
77893;BME280;67087;50.094;14.338;2023-07-13T05:40:58;97806.34;;;29.04;26.68
77893;BME280;67087;50.094;14.338;2023-07-13T05:43:23;97810.93;;;28.66;27.02
77893;BME280;67087;50.094;14.338;2023-07-13T05:45:49;97821.44;;;27.78;27.63
77893;BME280;67087;50.094;14.338;2023-07-13T05:48:14;97820.83;;;27.07;27.88
77893;BME280;67087;50.094;14.338;2023-07-13T05:50:39;97822.64;;;27.50;27.97
77893;BME280;67087;50.094;14.338;2023-07-13T05:53:04;97819.74;;;27.88;27.93
77893;BME280;67087;50.094;14.338;2023-07-13T05:55:29;97819.54;;;28.73;27.18
77893;BME280;67087;50.094;14.338;2023-07-13T05:57:54;97823.60;;;27.88;28.17
77893;BME280;67087;50.094;14.338;2023-07-13T06:00:19;97823.13;;;26.33;28.87
77893;BME280;67087;50.094;14.338;2023-07-13T06:02:44;97823.16;;;26.42;29.30
77893;BME280;67087;50.094;14.338;2023-07-13T06:05:10;97825.49;;;27.49;28.61
77893;BME280;67087;50.094;14.338;2023-07-13T06:07:34;97825.81;;;25.83;29.93
77893;BME280;67087;50.094;14.338;2023-07-13T06:09:59;97825.44;;;28.03;28.47
77893;BME280;67087;50.094;14.338;2023-07-13T06:12:24;97827.34;;;27.97;27.80
77893;BME280;67087;50.094;14.338;2023-07-13T06:14:49;97829.58;;;28.25;28.08
77893;BME280;67087;50.094;14.338;2023-07-13T06:17:14;97831.18;;;27.47;27.74
77893;BME280;67087;50.094;14.338;2023-07-13T06:19:39;97833.61;;;28.35;27.71
77893;BME280;67087;50.094;14.338;2023-07-13T06:22:05;97838.78;;;28.01;28.55
77893;BME280;67087;50.094;14.338;2023-07-13T06:24:29;97839.17;;;28.38;27.36
77893;BME280;67087;50.094;14.338;2023-07-13T06:26:55;97839.56;;;27.49;28.53
77893;BME280;67087;50.094;14.338;2023-07-13T06:29:20;97838.05;;;28.05;27.53
77893;BME280;67087;50.094;14.338;2023-07-13T06:31:44;97836.02;;;28.41;27.66
77893;BME280;67087;50.094;14.338;2023-07-13T06:34:10;97835.29;;;28.53;27.85
77893;BME280;67087;50.094;14.338;2023-07-13T06:36:35;97834.07;;;28.94;27.37
77893;BME280;67087;50.094;14.338;2023-07-13T06:39:00;97838.09;;;28.62;27.59
77893;BME280;67087;50.094;14.338;2023-07-13T06:41:25;97841.87;;;28.43;27.26
77893;BME280;67087;50.094;14.338;2023-07-13T06:43:50;97837.62;;;28.57;27.52
77893;BME280;67087;50.094;14.338;2023-07-13T06:46:15;97833.96;;;28.34;27.01
77893;BME280;67087;50.094;14.338;2023-07-13T06:48:43;97843.08;;;28.79;27.04
77893;BME280;67087;50.094;14.338;2023-07-13T06:51:05;97849.83;;;28.42;27.62
77893;BME280;67087;50.094;14.338;2023-07-13T06:53:30;97856.63;;;28.87;27.21
77893;BME280;67087;50.094;14.338;2023-07-13T06:55:55;97857.78;;;28.56;27.19
77893;BME280;67087;50.094;14.338;2023-07-13T06:58:22;97858.28;;;28.40;28.05
77893;BME280;67087;50.094;14.338;2023-07-13T07:00:49;97853.59;;;29.58;26.68
77893;BME280;67087;50.094;14.338;2023-07-13T07:03:12;97852.36;;;28.88;26.66
77893;BME280;67087;50.094;14.338;2023-07-13T07:05:36;97848.74;;;29.87;25.82
77893;BME280;67087;50.094;14.338;2023-07-13T07:08:01;97851.85;;;29.79;26.06
77893;BME280;67087;50.094;14.338;2023-07-13T07:10:28;97857.08;;;29.95;25.83
77893;BME280;67087;50.094;14.338;2023-07-13T07:12:51;97859.13;;;29.89;25.87
77893;BME280;67087;50.094;14.338;2023-07-13T07:15:17;97856.51;;;29.43;25.88
77893;BME280;67087;50.094;14.338;2023-07-13T07:17:41;97854.34;;;29.19;26.26
77893;BME280;67087;50.094;14.338;2023-07-13T07:20:08;97865.02;;;29.32;26.95
77893;BME280;67087;50.094;14.338;2023-07-13T07:22:32;97859.40;;;29.01;26.81
77893;BME280;67087;50.094;14.338;2023-07-13T07:24:57;97860.31;;;29.85;26.35
77893;BME280;67087;50.094;14.338;2023-07-13T07:27:22;97863.69;;;29.75;26.19
77893;BME280;67087;50.094;14.338;2023-07-13T07:29:47;97873.43;;;29.57;26.52
77893;BME280;67087;50.094;14.338;2023-07-13T07:32:12;97880.00;;;28.46;27.14
77893;BME280;67087;50.094;14.338;2023-07-13T07:34:37;97875.97;;;29.38;26.17
77893;BME280;67087;50.094;14.338;2023-07-13T07:37:02;97877.64;;;29.99;26.18
77893;BME280;67087;50.094;14.338;2023-07-13T07:39:27;97880.43;;;29.58;25.75
77893;BME280;67087;50.094;14.338;2023-07-13T07:41:52;97877.05;;;30.03;25.75
77893;BME280;67087;50.094;14.338;2023-07-13T07:44:17;97877.82;;;29.35;26.13
77893;BME280;67087;50.094;14.338;2023-07-13T07:46:42;97889.59;;;29.17;26.75
77893;BME280;67087;50.094;14.338;2023-07-13T07:49:07;97889.40;;;29.36;26.77
77893;BME280;67087;50.094;14.338;2023-07-13T07:51:32;97882.07;;;29.93;25.60
77893;BME280;67087;50.094;14.338;2023-07-13T07:53:57;97888.66;;;29.43;25.79
77893;BME280;67087;50.094;14.338;2023-07-13T07:56:22;97891.53;;;29.44;24.70
77893;BME280;67087;50.094;14.338;2023-07-13T07:58:47;97891.35;;;30.13;24.06
77893;BME280;67087;50.094;14.338;2023-07-13T08:01:13;97889.25;;;29.48;24.26
77893;BME280;67087;50.094;14.338;2023-07-13T08:03:37;97897.65;;;29.83;24.01
77893;BME280;67087;50.094;14.338;2023-07-13T08:06:02;97899.08;;;29.65;24.70
77893;BME280;67087;50.094;14.338;2023-07-13T08:08:27;97898.72;;;29.83;24.33
77893;BME280;67087;50.094;14.338;2023-07-13T08:10:53;97899.14;;;29.85;24.20
77893;BME280;67087;50.094;14.338;2023-07-13T08:13:17;97909.10;;;28.71;24.85
77893;BME280;67087;50.094;14.338;2023-07-13T08:15:42;97910.77;;;29.84;24.10
77893;BME280;67087;50.094;14.338;2023-07-13T08:18:08;97908.90;;;29.28;24.04
77893;BME280;67087;50.094;14.338;2023-07-13T08:20:32;97910.85;;;29.45;23.93
77893;BME280;67087;50.094;14.338;2023-07-13T08:22:57;97909.18;;;29.58;24.44
77893;BME280;67087;50.094;14.338;2023-07-13T08:25:22;97906.44;;;28.81;24.56
77893;BME280;67087;50.094;14.338;2023-07-13T08:27:47;97907.63;;;28.47;24.91
77893;BME280;67087;50.094;14.338;2023-07-13T08:30:13;97913.03;;;28.67;24.05
77893;BME280;67087;50.094;14.338;2023-07-13T08:32:38;97907.18;;;29.35;24.09
77893;BME280;67087;50.094;14.338;2023-07-13T08:35:03;97902.31;;;28.69;24.46
77893;BME280;67087;50.094;14.338;2023-07-13T08:37:28;97907.03;;;29.01;23.83
77893;BME280;67087;50.094;14.338;2023-07-13T08:39:53;97905.51;;;29.74;23.40
77893;BME280;67087;50.094;14.338;2023-07-13T08:42:27;97900.83;;;28.97;23.57
77893;BME280;67087;50.094;14.338;2023-07-13T08:44:50;97900.22;;;29.52;23.63
77893;BME280;67087;50.094;14.338;2023-07-13T08:47:10;97903.99;;;29.38;23.67
77893;BME280;67087;50.094;14.338;2023-07-13T08:49:33;97901.48;;;29.20;22.51
77893;BME280;67087;50.094;14.338;2023-07-13T08:52:01;97900.58;;;29.59;22.32
77893;BME280;67087;50.094;14.338;2023-07-13T08:54:27;97904.05;;;29.21;22.32
77893;BME280;67087;50.094;14.338;2023-07-13T08:56:50;97900.13;;;29.43;22.41
77893;BME280;67087;50.094;14.338;2023-07-13T08:59:15;97902.15;;;28.68;22.54
77893;BME280;67087;50.094;14.338;2023-07-13T09:01:51;97903.59;;;29.46;22.52
77893;BME280;67087;50.094;14.338;2023-07-13T09:04:07;97905.91;;;29.15;22.62
77893;BME280;67087;50.094;14.338;2023-07-13T09:06:34;97910.43;;;29.26;22.83
77893;BME280;67087;50.094;14.338;2023-07-13T09:08:58;97911.95;;;28.50;23.62
77893;BME280;67087;50.094;14.338;2023-07-13T09:11:29;97914.33;;;29.04;23.15
77893;BME280;67087;50.094;14.338;2023-07-13T09:13:48;97916.42;;;28.55;23.92
77893;BME280;67087;50.094;14.338;2023-07-13T09:16:10;97915.61;;;28.68;23.57
77893;BME280;67087;50.094;14.338;2023-07-13T09:18:36;97921.17;;;29.50;22.88
77893;BME280;67087;50.094;14.338;2023-07-13T09:21:02;97923.65;;;29.68;22.45
77893;BME280;67087;50.094;14.338;2023-07-13T09:23:25;97928.25;;;29.57;22.22
77893;BME280;67087;50.094;14.338;2023-07-13T09:25:51;97930.12;;;29.15;23.05
77893;BME280;67087;50.094;14.338;2023-07-13T09:28:18;97936.47;;;29.04;21.14
77893;BME280;67087;50.094;14.338;2023-07-13T09:30:45;97936.70;;;29.32;21.47
77893;BME280;67087;50.094;14.338;2023-07-13T09:33:03;97935.64;;;29.52;21.30
77893;BME280;67087;50.094;14.338;2023-07-13T09:35:29;97936.56;;;29.26;21.22
77893;BME280;67087;50.094;14.338;2023-07-13T09:37:58;97940.92;;;29.52;21.05
77893;BME280;67087;50.094;14.338;2023-07-13T09:40:23;97943.40;;;27.95;22.40
77893;BME280;67087;50.094;14.338;2023-07-13T09:42:44;97945.50;;;29.38;21.84
77893;BME280;67087;50.094;14.338;2023-07-13T09:45:09;97949.39;;;29.90;21.49
77893;BME280;67087;50.094;14.338;2023-07-13T09:47:39;97952.61;;;29.65;21.34
77893;BME280;67087;50.094;14.338;2023-07-13T09:50:00;97953.39;;;29.64;21.47
77893;BME280;67087;50.094;14.338;2023-07-13T09:52:25;97956.20;;;29.58;20.97
77893;BME280;67087;50.094;14.338;2023-07-13T09:54:50;97954.72;;;28.50;22.09
77893;BME280;67087;50.094;14.338;2023-07-13T09:57:16;97958.47;;;28.25;21.79
77893;BME280;67087;50.094;14.338;2023-07-13T09:59:41;97964.42;;;28.46;22.17
77893;BME280;67087;50.094;14.338;2023-07-13T10:02:23;97962.47;;;28.55;23.01
77893;BME280;67087;50.094;14.338;2023-07-13T10:04:31;97961.23;;;28.21;22.84
77893;BME280;67087;50.094;14.338;2023-07-13T10:07:05;97960.50;;;29.39;22.34
77893;BME280;67087;50.094;14.338;2023-07-13T10:09:19;97949.30;;;29.57;20.31
77893;BME280;67087;50.094;14.338;2023-07-13T10:11:44;97950.77;;;28.97;20.79
77893;BME280;67087;50.094;14.338;2023-07-13T10:14:13;97949.80;;;29.20;20.24
77893;BME280;67087;50.094;14.338;2023-07-13T10:16:35;97949.13;;;29.61;19.60
77893;BME280;67087;50.094;14.338;2023-07-13T10:19:00;97948.22;;;29.56;20.06
77893;BME280;67087;50.094;14.338;2023-07-13T10:21:28;97945.71;;;28.51;21.11
77893;BME280;67087;50.094;14.338;2023-07-13T10:23:52;97949.22;;;28.68;21.93
77893;BME280;67087;50.094;14.338;2023-07-13T10:26:18;97951.77;;;29.05;20.37
77893;BME280;67087;50.094;14.338;2023-07-13T10:28:40;97949.03;;;29.37;20.60
77893;BME280;67087;50.094;14.338;2023-07-13T10:31:07;97948.57;;;29.42;20.70
77893;BME280;67087;50.094;14.338;2023-07-13T10:33:29;97949.83;;;28.39;21.37
77893;BME280;67087;50.094;14.338;2023-07-13T10:36:01;97943.97;;;28.76;21.80
77893;BME280;67087;50.094;14.338;2023-07-13T10:38:22;97946.95;;;28.08;21.95
77893;BME280;67087;50.094;14.338;2023-07-13T10:40:51;97939.55;;;28.89;22.12
77893;BME280;67087;50.094;14.338;2023-07-13T10:43:14;97936.38;;;28.68;23.71
77893;BME280;67087;50.094;14.338;2023-07-13T10:45:35;97933.07;;;29.27;22.85
77893;BME280;67087;50.094;14.338;2023-07-13T10:48:00;97921.25;;;29.81;21.29
77893;BME280;67087;50.094;14.338;2023-07-13T10:50:26;97926.79;;;28.87;21.69
77893;BME280;67087;50.094;14.338;2023-07-13T10:52:51;97930.98;;;29.08;21.98
77893;BME280;67087;50.094;14.338;2023-07-13T10:57:42;97929.31;;;29.91;20.91
77893;BME280;67087;50.094;14.338;2023-07-13T11:00:16;97933.25;;;29.20;21.92
77893;BME280;67087;50.094;14.338;2023-07-13T11:02:29;97933.59;;;29.02;21.70
77893;BME280;67087;50.094;14.338;2023-07-13T11:04:56;97931.04;;;28.83;22.32
77893;BME280;67087;50.094;14.338;2023-07-13T11:07:22;97928.95;;;28.72;21.86
77893;BME280;67087;50.094;14.338;2023-07-13T11:09:50;97916.71;;;29.87;21.15
77893;BME280;67087;50.094;14.338;2023-07-13T11:14:36;97908.99;;;29.32;21.71
77893;BME280;67087;50.094;14.338;2023-07-13T11:19:37;97911.53;;;28.89;21.73
77893;BME280;67087;50.094;14.338;2023-07-13T11:22:09;97907.29;;;29.45;21.26
77893;BME280;67087;50.094;14.338;2023-07-13T11:24:16;97905.36;;;29.05;21.05
77893;BME280;67087;50.094;14.338;2023-07-13T11:26:41;97907.51;;;28.98;20.75
77893;BME280;67087;50.094;14.338;2023-07-13T11:29:09;97900.20;;;29.12;20.74
77893;BME280;67087;50.094;14.338;2023-07-13T11:31:33;97903.65;;;29.67;20.86
77893;BME280;67087;50.094;14.338;2023-07-13T11:33:58;97899.64;;;29.86;20.79
77893;BME280;67087;50.094;14.338;2023-07-13T11:36:21;97897.74;;;29.05;21.59
77893;BME280;67087;50.094;14.338;2023-07-13T11:38:51;97891.17;;;30.12;20.23
77893;BME280;67087;50.094;14.338;2023-07-13T11:41:16;97891.55;;;30.60;19.40
77893;BME280;67087;50.094;14.338;2023-07-13T11:43:35;97897.11;;;30.43;19.44
77893;BME280;67087;50.094;14.338;2023-07-13T11:46:14;97899.24;;;29.44;21.75
77893;BME280;67087;50.094;14.338;2023-07-13T11:48:27;97901.81;;;29.99;21.49
77893;BME280;67087;50.094;14.338;2023-07-13T11:50:53;97894.24;;;30.24;20.66
77893;BME280;67087;50.094;14.338;2023-07-13T11:53:15;97895.95;;;29.53;20.59
77893;BME280;67087;50.094;14.338;2023-07-13T11:55:40;97903.42;;;30.08;20.65
77893;BME280;67087;50.094;14.338;2023-07-13T11:58:05;97903.32;;;29.86;21.71
77893;BME280;67087;50.094;14.338;2023-07-13T12:00:32;97903.47;;;29.62;22.24
77893;BME280;67087;50.094;14.338;2023-07-13T12:02:57;97907.02;;;29.55;22.52
77893;BME280;67087;50.094;14.338;2023-07-13T12:05:21;97906.12;;;29.88;21.42
77893;BME280;67087;50.094;14.338;2023-07-13T12:07:48;97906.49;;;29.93;21.44
77893;BME280;67087;50.094;14.338;2023-07-13T12:10:19;97901.79;;;29.63;22.27
77893;BME280;67087;50.094;14.338;2023-07-13T12:12:46;97896.63;;;30.13;21.15
77893;BME280;67087;50.094;14.338;2023-07-13T12:15:05;97894.87;;;30.44;21.28
77893;BME280;67087;50.094;14.338;2023-07-13T12:17:30;97895.96;;;30.01;22.25
77893;BME280;67087;50.094;14.338;2023-07-13T12:19:56;97894.80;;;29.81;23.47
77893;BME280;67087;50.094;14.338;2023-07-13T12:22:21;97900.12;;;30.46;22.51
77893;BME280;67087;50.094;14.338;2023-07-13T12:24:48;97893.71;;;30.79;21.76
77893;BME280;67087;50.094;14.338;2023-07-13T12:27:19;97890.01;;;30.49;21.83
77893;BME280;67087;50.094;14.338;2023-07-13T12:29:39;97886.28;;;30.82;22.19
77893;BME280;67087;50.094;14.338;2023-07-13T12:32:08;97892.32;;;30.66;22.56
77893;BME280;67087;50.094;14.338;2023-07-13T12:34:31;97890.09;;;30.71;22.24
77893;BME280;67087;50.094;14.338;2023-07-13T12:36:59;97885.00;;;31.09;21.35
77893;BME280;67087;50.094;14.338;2023-07-13T12:39:25;97883.17;;;30.70;21.28
77893;BME280;67087;50.094;14.338;2023-07-13T12:41:50;97883.39;;;31.28;21.55
77893;BME280;67087;50.094;14.338;2023-07-13T12:44:16;97879.34;;;31.06;19.15
77893;BME280;67087;50.094;14.338;2023-07-13T12:46:54;97882.13;;;30.61;19.84
77893;BME280;67087;50.094;14.338;2023-07-13T12:49:07;97882.78;;;30.61;21.23